Green Meadow, Maryland
Current Conditions -  °F | °C
As of 2:35 PM on Friday 24 Oct 2014 (Local Time) from KCGS Reporting Station
Clear Clear  
Wind Chill: 66°   Ceiling: Unl
Heat Index: 66°   Visibility: 10mi
Dew Point: 37°   Wind: 10mph
Humidity: 35%   Direction: 290°WNW
Pressure: 29.89"   Gusts: 17mph
Location:  38.9677°N, 76.9584°W
Report Text: KCGS 241835Z AUTO 29009G15KT 10SM CLR 19/03 A2989 RMK AO1
Loading
Personal Weather Stations






























Interactive Weather Map
Tropical Storm Tracking
New forecast layout! Learn more

10-Day Weather Forecast

Advertisements
Track Severe Weather on mobile